Time;durP1;ratioP1;P1;durP2;ratioP2;P2;SDS_P1;SDS_P2;PMS_P1;PMS_P2;Temp;Humidity;BMP_temperature;BMP_pressure;BME280_temperature;BME280_humidity;BME280_pressure;Samples;Min_cycle;Max_cycle;Signal;HPM_P1;HPM_P2
2023/02/13 00:02:13;;;;;;;21.55;9.80;;;;;;;5.28;53.32;103834.91;4928675;28;20070;-70
2023/02/13 00:04:38;;;;;;;21.67;10.45;;;;;;;5.31;53.40;103839.28;4952000;28;20056;-73
2023/02/13 00:07:04;;;;;;;21.65;10.77;;;;;;;5.43;52.89;103834.44;4955523;28;20562;-73
2023/02/13 00:09:29;;;;;;;22.67;11.32;;;;;;;5.17;53.81;103842.34;4962132;28;20956;-84
2023/02/13 00:11:55;;;;;;;19.83;9.73;;;;;;;5.29;53.72;103838.38;4975612;28;20753;-87
2023/02/13 00:14:20;;;;;;;22.88;11.50;;;;;;;5.01;54.22;103837.53;4972780;28;20049;-87
2023/02/13 00:16:46;;;;;;;21.90;11.20;;;;;;;5.29;54.19;103835.78;4976954;28;20037;-87
2023/02/13 00:19:11;;;;;;;18.52;10.20;;;;;;;5.38;53.80;103830.84;4974674;28;20329;-87
2023/02/13 00:21:36;;;;;;;22.60;10.50;;;;;;;5.40;53.76;103830.06;4969892;28;20069;-86
2023/02/13 00:24:02;;;;;;;23.88;10.65;;;;;;;5.39;53.80;103832.59;4970697;28;20525;-86
2023/02/13 00:26:28;;;;;;;19.70;10.60;;;;;;;5.43;53.62;103830.13;4975313;28;20960;-84
2023/02/13 00:28:55;;;;;;;19.30;10.40;;;;;;;5.43;53.75;103816.28;4968831;28;20042;-87
2023/02/13 00:31:23;;;;;;;18.83;9.10;;;;;;;5.37;53.13;103832.56;4977855;28;20852;-88
2023/02/13 00:33:48;;;;;;;17.85;9.43;;;;;;;5.54;53.30;103825.25;4975868;28;20056;-87
2023/02/13 00:36:17;;;;;;;23.77;12.65;;;;;;;5.43;53.60;103822.34;4951481;28;20137;-77
2023/02/13 00:38:44;;;;;;;24.45;10.07;;;;;;;5.15;54.20;103823.28;4944747;28;20173;-68
2023/02/13 00:41:11;;;;;;;18.70;9.43;;;;;;;5.22;54.20;103827.81;4956935;28;20069;-72
2023/02/13 00:43:36;;;;;;;18.52;10.55;;;;;;;5.36;53.92;103825.63;4953762;28;20676;-72
2023/02/13 00:46:03;;;;;;;17.52;8.85;;;;;;;5.42;54.07;103824.94;4956167;28;20030;-72
2023/02/13 00:48:30;;;;;;;16.52;8.25;;;;;;;5.50;53.79;103822.53;4961572;28;20041;-72
2023/02/13 00:50:56;;;;;;;20.92;9.02;;;;;;;5.49;53.61;103818.19;4960249;28;20277;-73
2023/02/13 00:53:23;;;;;;;21.15;11.55;;;;;;;5.52;53.26;103816.56;4954566;28;20070;-73
2023/02/13 00:55:49;;;;;;;18.63;10.07;;;;;;;5.53;53.52;103818.31;4951357;28;20306;-72
2023/02/13 00:58:16;;;;;;;18.48;8.55;;;;;;;5.52;53.51;103811.38;4955128;28;20434;-73
2023/02/13 01:00:41;;;;;;;18.75;9.68;;;;;;;5.52;53.17;103813.09;4955779;28;20089;-72
2023/02/13 01:03:07;;;;;;;17.48;9.50;;;;;;;5.52;53.39;103810.50;4958744;28;20042;-73
2023/02/13 01:05:32;;;;;;;17.70;8.75;;;;;;;5.46;53.43;103800.84;4956891;28;20057;-72
2023/02/13 01:07:58;;;;;;;19.35;9.35;;;;;;;5.20;53.45;103808.72;4954389;28;20039;-73
2023/02/13 01:10:24;;;;;;;15.88;9.48;;;;;;;5.40;53.79;103803.25;4955561;28;20038;-73
2023/02/13 01:12:50;;;;;;;17.23;8.32;;;;;;;5.47;53.38;103807.78;4958006;28;20089;-73
2023/02/13 01:15:16;;;;;;;18.92;8.50;;;;;;;5.35;53.32;103815.22;4970071;28;20360;-72
2023/02/13 01:17:42;;;;;;;16.65;8.55;;;;;;;5.17;54.22;103807.78;4966680;28;20237;-71
2023/02/13 01:20:09;;;;;;;13.82;7.97;;;;;;;5.37;53.64;103810.91;4955017;28;20479;-72
2023/02/13 01:22:35;;;;;;;19.45;8.23;;;;;;;5.39;53.77;103809.25;4951800;28;20050;-72
2023/02/13 01:25:00;;;;;;;17.25;8.20;;;;;;;5.23;53.59;103803.66;4970098;28;20170;-72
2023/02/13 01:27:29;;;;;;;17.88;7.63;;;;;;;5.26;53.55;103802.84;4959259;28;20047;-71
2023/02/13 01:29:55;;;;;;;17.00;8.95;;;;;;;5.25;53.64;103801.06;4961275;28;20698;-72
2023/02/13 01:32:20;;;;;;;15.43;8.18;;;;;;;5.12;53.74;103797.25;4968897;28;21182;-71
2023/02/13 01:34:46;;;;;;;14.63;8.18;;;;;;;5.18;53.65;103797.44;4952469;28;20038;-69
2023/02/13 01:37:12;;;;;;;17.85;8.48;;;;;;;5.13;54.04;103793.84;4970187;28;20106;-70
2023/02/13 01:39:38;;;;;;;14.13;7.47;;;;;;;5.18;54.04;103805.22;4951703;28;20034;-70
2023/02/13 01:42:04;;;;;;;17.30;8.63;;;;;;;5.14;54.02;103798.16;4954624;28;20038;-70
2023/02/13 01:44:46;;;;;;;16.38;8.48;;;;;;;5.18;53.88;103799.16;4954383;28;20045;-69
2023/02/13 01:47:39;;;;;;;15.07;6.93;;;;;;;5.31;53.36;103803.00;4955505;28;20133;-70
2023/02/13 01:50:43;;;;;;;16.30;7.72;;;;;;;5.27;53.65;103803.72;4954612;28;20142;-70
2023/02/13 01:53:16;;;;;;;21.20;7.80;;;;;;;5.07;54.09;103811.78;4948173;28;20115;-71
2023/02/13 01:55:51;;;;;;;15.48;7.25;;;;;;;5.09;54.23;103810.13;4952670;28;20126;-72
2023/02/13 01:58:20;;;;;;;17.48;8.07;;;;;;;5.12;53.89;103805.03;4949412;28;20050;-73
2023/02/13 02:00:49;;;;;;;15.23;7.22;;;;;;;5.12;53.83;103806.75;4968473;28;20555;-68
2023/02/13 02:03:26;;;;;;;16.52;8.45;;;;;;;5.09;54.30;103804.94;4956057;28;20054;-79
2023/02/13 02:05:57;;;;;;;;;;;;;;;5.22;53.79;103796.69;4986678;28;20038;-78
2023/02/13 02:08:23;;;;;;;19.55;7.25;;;;;;;5.13;53.65;103791.25;4960658;28;19929;-78
2023/02/13 02:10:54;;;;;;;17.52;7.38;;;;;;;5.17;53.93;103787.91;4964727;28;20104;-79
2023/02/13 02:13:21;;;;;;;18.30;8.30;;;;;;;5.18;53.77;103797.44;4972229;28;20051;-69
2023/02/13 02:15:48;;;;;;;16.50;7.40;;;;;;;5.14;54.04;103790.38;4956326;28;20035;-73
2023/02/13 02:18:19;;;;;;;17.52;8.35;;;;;;;5.15;53.66;103789.56;4958454;28;20057;-70
2023/02/13 02:20:51;;;;;;;10.85;6.00;;;;;;;5.23;53.89;103792.38;4963483;28;20034;-70
2023/02/13 02:23:42;;;;;;;14.55;7.07;;;;;;;5.24;53.74;103784.66;4965605;28;20153;-70
2023/02/13 02:26:34;;;;;;;16.58;7.95;;;;;;;5.29;53.62;103786.50;4973180;28;20349;-71
2023/02/13 02:29:21;;;;;;;19.27;8.80;;;;;;;5.07;53.97;103785.88;4945419;28;20105;-71
2023/02/13 02:31:58;;;;;;;19.23;9.32;;;;;;;5.00;53.85;103789.13;4959073;28;20046;-71
2023/02/13 02:34:49;;;;;;;18.65;8.52;;;;;;;5.08;53.96;103787.63;4959730;28;20041;-71
2023/02/13 02:37:27;;;;;;;20.90;9.23;;;;;;;5.12;53.38;103788.59;4961769;28;20096;-71
2023/02/13 02:40:18;;;;;;;26.20;9.80;;;;;;;5.05;53.26;103791.00;4954613;28;20551;-71
2023/02/13 02:42:55;;;;;;;20.35;10.93;;;;;;;5.01;52.79;103785.66;4956780;28;20539;-71
2023/02/13 02:45:42;;;;;;;20.45;9.98;;;;;;;4.97;53.21;103783.84;4963469;28;20515;-71
2023/02/13 02:51:22;;;;;;;20.88;9.05;;;;;;;5.17;52.48;103781.84;4973388;28;20031;-71
2023/02/13 02:53:56;;;;;;;23.40;10.50;;;;;;;5.17;52.25;103772.34;4940787;28;20165;-71
2023/02/13 02:56:33;;;;;;;20.35;9.40;;;;;;;5.21;52.41;103769.00;4956164;28;20061;-71
2023/02/13 03:07:40;;;;;;;18.63;10.13;;;;;;;5.03;51.42;103756.41;4954420;28;20783;-71
2023/02/13 03:13:20;;;;;;;22.38;9.88;;;;;;;4.96;51.65;103750.97;4951903;28;20046;-70
2023/02/13 03:22:20;;;;;;;22.90;10.90;;;;;;;4.91;50.97;103747.38;4955710;28;20782;-70
2023/02/13 03:24:57;;;;;;;21.33;9.77;;;;;;;4.87;50.67;103740.28;4953629;28;20065;-70
2023/02/13 03:30:05;;;;;;;23.90;10.50;;;;;;;4.98;50.62;103749.31;4957021;28;20042;-70
2023/02/13 03:30:37;;;;;;;19.08;9.63;;;;;;;5.02;50.43;103745.97;4954261;28;20054;-70
2023/02/13 03:33:10;;;;;;;23.77;12.23;;;;;;;5.02;50.23;103748.56;4938323;28;20531;-70
2023/02/13 03:39:06;;;;;;;25.75;11.02;;;;;;;4.97;49.97;103748.44;4950101;28;20045;-70
2023/02/13 03:41:47;;;;;;;23.38;10.95;;;;;;;4.91;50.22;103752.56;4946705;28;20043;-70
2023/02/13 03:44:23;;;;;;;22.60;10.30;;;;;;;4.84;50.40;103744.56;4944404;28;20043;-70
2023/02/13 03:46:52;;;;;;;23.30;10.75;;;;;;;4.88;50.10;103747.25;4952191;28;20042;-70
2023/02/13 03:52:14;;;;;;;19.98;9.80;;;;;;;4.80;49.97;103745.28;4958640;28;20042;-68
2023/02/13 04:00:15;;;;;;;20.65;10.45;;;;;;;4.85;49.99;103753.19;4955348;28;20062;-73
2023/02/13 04:02:59;;;;;;;30.40;11.40;;;;;;;4.86;49.79;103748.91;4951819;28;20054;-77
2023/02/13 04:05:28;;;;;;;27.02;11.48;;;;;;;4.91;49.58;103752.56;4952338;28;20042;-71
2023/02/13 04:07:54;;;;;;;26.38;11.98;;;;;;;4.85;49.72;103750.59;4965490;28;20039;-72
2023/02/13 04:10:23;;;;;;;23.67;10.88;;;;;;;4.81;49.94;103748.75;4959475;28;20065;-71
2023/02/13 04:13:02;;;;;;;24.65;10.98;;;;;;;4.81;49.79;103762.63;4951359;28;20039;-72
2023/02/13 04:15:37;;;;;;;23.42;11.20;;;;;;;4.69;50.10;103758.75;4952615;28;20026;-72
2023/02/13 04:18:14;;;;;;;20.13;9.77;;;;;;;4.76;49.96;103766.75;4952929;28;20101;-72
2023/02/13 04:20:40;;;;;;;23.70;9.05;;;;;;;4.76;49.94;103764.16;4966605;28;20386;-72
2023/02/13 04:23:07;;;;;;;18.23;10.00;;;;;;;4.78;49.92;103762.50;4952280;28;20681;-70
2023/02/13 04:25:33;;;;;;;22.05;10.85;;;;;;;4.80;49.85;103771.19;4955087;28;20033;-71
2023/02/13 04:27:58;;;;;;;23.13;11.95;;;;;;;4.83;49.53;103760.94;4952693;28;20044;-72
2023/02/13 04:30:24;;;;;;;22.58;10.23;;;;;;;4.90;49.67;103763.75;4951876;28;20761;-71
2023/02/13 04:32:51;;;;;;;23.08;11.38;;;;;;;4.83;49.73;103766.13;4951192;28;20057;-71
2023/02/13 04:35:17;;;;;;;24.05;10.52;;;;;;;4.92;49.38;103768.16;4942697;28;20037;-71
2023/02/13 04:37:43;;;;;;;22.85;10.45;;;;;;;4.91;49.61;103762.91;4951962;28;20039;-71
2023/02/13 04:40:09;;;;;;;22.58;9.40;;;;;;;4.88;49.44;103766.31;4952379;28;20038;-71
2023/02/13 04:42:34;;;;;;;19.25;10.07;;;;;;;4.86;49.66;103764.47;4948694;28;20050;-72
2023/02/13 04:44:59;;;;;;;25.90;10.52;;;;;;;4.78;49.59;103761.63;4956018;28;20041;-70
2023/02/13 04:47:25;;;;;;;23.10;10.73;;;;;;;4.86;49.77;103765.34;4951158;28;20042;-70
2023/02/13 04:49:50;;;;;;;24.08;10.43;;;;;;;4.80;49.46;103760.84;4955256;28;20045;-70
2023/02/13 04:52:18;;;;;;;20.52;10.85;;;;;;;4.84;49.67;103760.09;4953721;28;20031;-70
2023/02/13 04:54:44;;;;;;;21.05;9.88;;;;;;;4.83;49.50;103776.50;4954150;28;20136;-70
2023/02/13 04:57:09;;;;;;;22.65;10.25;;;;;;;4.72;49.67;103771.78;4952297;28;20141;-70
2023/02/13 04:59:34;;;;;;;23.88;10.13;;;;;;;4.73;49.61;103769.25;4955238;28;20030;-69
2023/02/13 05:02:00;;;;;;;21.88;9.43;;;;;;;4.77;49.59;103763.34;4950280;28;20076;-71
2023/02/13 05:04:25;;;;;;;17.83;8.93;;;;;;;4.76;49.46;103768.47;4959147;28;20145;-72
2023/02/13 05:06:51;;;;;;;18.58;8.98;;;;;;;4.72;49.12;103762.34;4951541;28;20050;-72
2023/02/13 05:09:17;;;;;;;20.58;9.70;;;;;;;4.68;49.41;103765.66;4950186;28;20495;-71
2023/02/13 05:11:42;;;;;;;16.25;9.80;;;;;;;4.59;49.18;103765.38;4951867;28;20149;-71
2023/02/13 05:14:09;;;;;;;21.35;9.73;;;;;;;4.53;48.69;103760.00;4954501;28;20066;-72
2023/02/13 05:16:35;;;;;;;19.17;8.43;;;;;;;4.57;49.09;103761.84;4951958;28;20241;-72
2023/02/13 05:19:00;;;;;;;18.38;8.95;;;;;;;4.60;48.83;103762.81;4951354;28;20039;-81
2023/02/13 05:24:10;;;;;;;16.70;8.90;;;;;;;4.54;48.37;103762.66;4953171;28;20122;-70
2023/02/13 05:26:35;;;;;;;16.40;8.02;;;;;;;4.54;48.63;103764.31;4951351;28;20071;-70
2023/02/13 05:29:19;;;;;;;20.20;9.40;;;;;;;4.62;48.01;103758.56;4950237;28;20050;-73
2023/02/13 05:31:53;;;;;;;15.32;7.70;;;;;;;4.58;48.04;103763.59;4953283;28;20872;-72
2023/02/13 05:34:23;;;;;;;19.98;7.72;;;;;;;4.57;48.18;103762.72;4968504;28;20397;-69
2023/02/13 05:36:49;;;;;;;16.40;8.32;;;;;;;4.68;47.77;103768.25;4951682;28;20034;-67
2023/02/13 05:39:15;;;;;;;17.67;8.32;;;;;;;4.66;47.44;103763.84;4950105;28;20043;-67
2023/02/13 05:41:42;;;;;;;17.08;9.23;;;;;;;4.66;47.63;103774.22;4951263;28;20649;-68
2023/02/13 05:44:09;;;;;;;16.25;8.00;;;;;;;4.65;48.06;103775.91;4956994;28;20258;-64
2023/02/13 05:46:37;;;;;;;15.10;7.72;;;;;;;4.77;47.52;103776.31;4941461;28;20537;-70
2023/02/13 05:49:03;;;;;;;16.45;7.95;;;;;;;4.88;47.63;103778.34;4957426;28;20128;-70
2023/02/13 05:51:28;;;;;;;19.00;8.60;;;;;;;4.88;47.58;103778.34;4958255;28;20113;-69
2023/02/13 05:53:54;;;;;;;16.50;7.72;;;;;;;4.83;47.68;103781.69;4950637;28;20038;-71
2023/02/13 05:56:19;;;;;;;15.73;7.57;;;;;;;4.86;47.64;103780.03;4953973;28;20026;-71
2023/02/13 05:58:45;;;;;;;14.50;7.10;;;;;;;4.82;47.81;103769.53;4953581;28;20471;-71
2023/02/13 06:01:10;;;;;;;18.48;9.15;;;;;;;4.73;47.89;103773.56;4959323;28;20609;-71
2023/02/13 06:03:36;;;;;;;16.27;8.30;;;;;;;4.76;48.28;103784.91;4959096;28;20050;-71
2023/02/13 06:06:01;;;;;;;16.10;7.63;;;;;;;4.82;47.79;103784.22;4956254;28;20150;-70
2023/02/13 06:08:27;;;;;;;19.83;8.65;;;;;;;4.83;47.53;103792.06;4954153;28;20039;-72
2023/02/13 06:10:53;;;;;;;16.98;7.63;;;;;;;4.77;47.90;103789.25;4961332;28;20043;-72
2023/02/13 06:13:19;;;;;;;23.13;9.02;;;;;;;4.91;47.42;103794.03;4953248;28;20411;-76
2023/02/13 06:15:44;;;;;;;17.50;8.02;;;;;;;4.87;47.61;103799.91;4953920;28;20046;-69
2023/02/13 06:18:10;;;;;;;16.02;7.47;;;;;;;4.89;47.69;103800.88;4957785;28;20062;-69
2023/02/13 06:20:36;;;;;;;18.75;9.13;;;;;;;4.83;47.42;103798.91;4950628;28;20125;-70
2023/02/13 06:23:02;;;;;;;18.20;8.55;;;;;;;4.80;47.82;103798.84;4951367;28;20042;-69
2023/02/13 06:25:27;;;;;;;17.30;8.00;;;;;;;4.79;47.98;103794.50;4952484;28;20590;-70
2023/02/13 06:27:53;;;;;;;16.55;8.05;;;;;;;4.82;48.19;103795.47;4950490;28;20974;-69
2023/02/13 06:30:19;;;;;;;20.08;8.23;;;;;;;4.86;47.57;103788.66;4950863;28;20499;-70
2023/02/13 06:32:46;;;;;;;18.92;8.15;;;;;;;4.92;47.68;103793.19;4947675;28;20440;-70
2023/02/13 06:35:12;;;;;;;21.20;9.02;;;;;;;4.79;47.32;103799.69;4951872;28;20310;-70
2023/02/13 06:37:38;;;;;;;19.88;9.45;;;;;;;4.79;47.63;103805.75;4948386;28;20051;-75
2023/02/13 06:40:07;;;;;;;15.02;8.27;;;;;;;4.81;47.45;103798.91;4957942;28;20037;-74
2023/02/13 06:42:33;;;;;;;17.50;8.65;;;;;;;4.76;47.97;103800.44;4964000;28;20092;-77
2023/02/13 06:44:58;;;;;;;18.27;9.30;;;;;;;4.84;47.91;103804.16;4938659;28;20487;-78
2023/02/13 06:47:24;;;;;;;15.70;8.05;;;;;;;4.78;47.66;103803.09;4951298;28;20061;-68
2023/02/13 06:49:52;;;;;;;16.08;8.32;;;;;;;4.84;48.11;103803.28;4950364;28;20034;-69
2023/02/13 06:52:18;;;;;;;18.38;8.25;;;;;;;4.86;48.09;103808.53;4947918;28;20820;-68
2023/02/13 06:54:44;;;;;;;13.70;7.72;;;;;;;4.89;47.97;103803.47;4968065;28;20045;-70
2023/02/13 06:57:09;;;;;;;14.63;8.18;;;;;;;4.89;47.51;103821.59;4951844;28;20051;-69
2023/02/13 06:59:35;;;;;;;16.00;8.57;;;;;;;4.71;48.26;103822.75;4949195;28;20121;-70
2023/02/13 07:02:00;;;;;;;20.23;9.82;;;;;;;4.67;48.08;103823.47;4951939;28;20051;-69
2023/02/13 07:04:27;;;;;;;25.58;9.82;;;;;;;4.52;48.87;103833.34;4950630;28;20469;-68
2023/02/13 07:06:56;;;;;;;15.65;7.85;;;;;;;4.67;48.84;103830.38;4950505;28;20039;-72
2023/02/13 07:09:22;;;;;;;18.17;7.63;;;;;;;4.74;48.53;103828.00;4965379;28;20129;-71
2023/02/13 07:11:48;;;;;;;17.48;8.48;;;;;;;4.79;48.28;103831.66;4952287;28;20050;-71
2023/02/13 07:14:14;;;;;;;20.05;9.45;;;;;;;4.79;48.47;103826.47;4949208;28;20320;-72
2023/02/13 07:16:39;;;;;;;17.05;6.97;;;;;;;4.83;48.25;103833.50;4949540;28;20070;-70
2023/02/13 07:19:05;;;;;;;14.32;7.60;;;;;;;4.78;48.04;103829.88;4951777;28;20046;-76
2023/02/13 07:21:30;;;;;;;16.92;7.72;;;;;;;4.80;48.33;103828.22;4950930;28;20035;-70
2023/02/13 07:23:55;;;;;;;18.13;8.30;;;;;;;4.87;47.88;103833.59;4949960;28;20601;-68
2023/02/13 07:26:21;;;;;;;18.00;9.00;;;;;;;4.84;47.86;103832.66;4950435;28;20104;-70
2023/02/13 07:28:46;;;;;;;19.33;9.35;;;;;;;4.82;47.83;103825.69;4952745;28;20051;-70
2023/02/13 07:31:12;;;;;;;18.45;8.02;;;;;;;4.72;48.04;103828.81;4951969;28;20049;-69
2023/02/13 07:33:37;;;;;;;20.62;8.36;;;;;;;4.69;48.57;103831.31;4910062;28;1150187;-71
2023/02/13 07:36:04;;;;;;;17.50;7.72;;;;;;;4.82;48.88;103830.88;4954803;28;20041;-70
2023/02/13 07:38:31;;;;;;;16.98;7.55;;;;;;;4.89;48.52;103829.38;4952966;28;20034;-76
2023/02/13 07:41:03;;;;;;;14.27;7.65;;;;;;;4.97;48.47;103833.09;4953479;28;20043;-69
2023/02/13 07:43:29;;;;;;;17.35;7.95;;;;;;;4.89;48.14;103824.19;4957015;28;20124;-70
2023/02/13 07:46:02;;;;;;;14.50;7.18;;;;;;;4.97;48.41;103821.00;4951570;28;20034;-68
2023/02/13 07:48:28;;;;;;;15.40;7.60;;;;;;;4.97;48.13;103827.91;4968074;28;20120;-73
2023/02/13 07:50:58;;;;;;;15.80;8.75;;;;;;;4.94;48.44;103830.38;4935014;28;20491;-70
2023/02/13 07:53:23;;;;;;;19.00;8.30;;;;;;;4.90;48.87;103821.66;4951153;28;20060;-73
2023/02/13 07:55:49;;;;;;;17.88;9.43;;;;;;;5.07;48.55;103832.53;4955541;28;20026;-67
2023/02/13 07:58:15;;;;;;;18.05;8.68;;;;;;;5.06;48.17;103830.78;4954952;28;20501;-69
2023/02/13 08:00:40;;;;;;;15.88;7.47;;;;;;;5.12;48.29;103836.13;4952187;28;20805;-70
2023/02/13 08:03:06;;;;;;;22.63;9.80;;;;;;;5.13;48.00;103837.91;4955307;28;20181;-68
2023/02/13 08:05:32;;;;;;;18.70;8.80;;;;;;;5.09;47.73;103835.19;4950283;28;20066;-69
2023/02/13 08:07:58;;;;;;;16.13;7.82;;;;;;;5.03;48.15;103830.66;4953748;28;20500;-69
2023/02/13 08:13:09;;;;;;;14.77;8.38;;;;;;;5.13;48.37;103830.13;4952812;28;20041;-69
2023/02/13 08:15:34;;;;;;;15.02;8.68;;;;;;;5.10;48.19;103843.00;4948119;28;20045;-68
2023/02/13 08:18:00;;;;;;;23.27;8.35;;;;;;;5.13;47.72;103839.63;4954797;28;20043;-69
2023/02/13 08:20:26;;;;;;;23.55;9.50;;;;;;;5.06;47.58;103835.97;4953214;28;20030;-69
2023/02/13 08:22:51;;;;;;;18.55;8.63;;;;;;;5.10;47.75;103842.09;4950798;28;20113;-69
2023/02/13 08:25:18;;;;;;;14.73;7.88;;;;;;;5.29;47.66;103834.06;4949721;28;20045;-70
2023/02/13 08:27:44;;;;;;;17.48;7.50;;;;;;;5.34;47.20;103841.97;4951028;28;20093;-70
2023/02/13 08:30:10;;;;;;;16.90;7.97;;;;;;;5.31;46.95;103852.25;4957636;28;20036;-69
2023/02/13 08:32:36;;;;;;;15.35;8.35;;;;;;;5.12;47.95;103848.22;4945836;28;20034;-69
2023/02/13 08:35:02;;;;;;;17.83;8.00;;;;;;;5.26;47.47;103854.72;4955339;28;20467;-70
2023/02/13 08:37:27;;;;;;;17.60;10.00;;;;;;;5.07;48.32;103853.28;4955255;28;20045;-69
2023/02/13 08:39:52;;;;;;;18.52;7.82;;;;;;;5.11;48.13;103855.13;4950257;28;21017;-70
2023/02/13 08:42:18;;;;;;;16.92;8.73;;;;;;;5.20;48.18;103842.44;4946736;28;20098;-69
2023/02/13 08:44:44;;;;;;;19.23;8.70;;;;;;;5.12;48.49;103832.66;4941293;28;20038;-70
2023/02/13 08:47:09;;;;;;;17.67;8.57;;;;;;;5.16;48.62;103835.41;4950341;28;20047;-70
2023/02/13 08:49:35;;;;;;;17.23;9.13;;;;;;;5.20;48.57;103833.78;4951001;28;20109;-70
2023/02/13 08:52:01;;;;;;;19.25;8.82;;;;;;;5.30;48.49;103832.34;4948986;28;20668;-70
2023/02/13 08:54:26;;;;;;;17.67;8.32;;;;;;;5.31;48.07;103832.38;4950095;28;20026;-71
2023/02/13 08:56:55;;;;;;;18.83;8.93;;;;;;;5.36;47.89;103832.53;4948551;28;20543;-70
2023/02/13 08:59:21;;;;;;;15.18;7.15;;;;;;;5.50;48.05;103840.69;4948754;28;20026;-70
2023/02/13 09:01:47;;;;;;;19.02;8.15;;;;;;;5.59;47.06;103844.47;4964064;28;20034;-70
2023/02/13 09:04:17;;;;;;;19.73;10.43;;;;;;;5.61;47.37;103842.78;4951059;28;20043;-70
2023/02/13 09:06:43;;;;;;;15.85;8.77;;;;;;;5.61;46.55;103842.78;4955610;28;20034;-69
2023/02/13 09:09:08;;;;;;;20.17;9.32;;;;;;;5.51;46.28;103845.94;4946983;28;20530;-69
2023/02/13 09:11:34;;;;;;;20.02;9.55;;;;;;;5.59;46.54;103848.75;4945470;28;20064;-70
2023/02/13 09:13:59;;;;;;;17.48;7.60;;;;;;;5.69;46.60;103852.50;4951810;28;20070;-70
2023/02/13 09:16:25;;;;;;;16.08;8.50;;;;;;;5.73;46.74;103856.94;4945758;28;20251;-69
2023/02/13 09:18:50;;;;;;;17.00;7.97;;;;;;;5.76;46.99;103851.81;4958508;28;20043;-70
2023/02/13 09:21:18;;;;;;;20.38;8.85;;;;;;;5.67;47.10;103848.13;4952062;28;20112;-68
2023/02/13 09:23:44;;;;;;;16.73;8.90;;;;;;;5.65;47.27;103847.19;4941922;28;20070;-69
2023/02/13 09:26:12;;;;;;;22.20;7.75;;;;;;;5.80;47.21;103845.88;4946633;28;20049;-69
2023/02/13 09:28:38;;;;;;;25.05;9.02;;;;;;;5.84;46.08;103850.34;4944442;28;20042;-68
2023/02/13 09:31:15;;;;;;;21.75;9.30;;;;;;;5.78;45.99;103848.44;4951552;28;20042;-69
2023/02/13 09:33:40;;;;;;;18.58;8.57;;;;;;;5.51;46.55;103856.31;4942830;28;20042;-69
2023/02/13 09:36:08;;;;;;;17.42;8.15;;;;;;;5.83;45.70;103848.56;4952813;28;20042;-68
2023/02/13 09:38:34;;;;;;;19.23;9.18;;;;;;;5.96;45.91;103857.56;4943371;28;20038;-69
2023/02/13 09:41:04;;;;;;;17.70;9.57;;;;;;;5.84;45.63;103860.72;4951252;28;20037;-68
2023/02/13 09:43:45;;;;;;;19.35;8.52;;;;;;;5.90;46.35;103855.66;4948038;28;20039;-69
2023/02/13 09:46:22;;;;;;;18.50;9.50;;;;;;;5.80;45.71;103859.75;4949892;28;20039;-68
2023/02/13 09:48:54;;;;;;;15.20;7.25;;;;;;;5.86;46.29;103848.66;4936750;28;20047;-69
2023/02/13 09:51:22;;;;;;;26.05;9.07;;;;;;;5.96;45.03;103855.84;4947542;28;20034;-69
2023/02/13 09:53:59;;;;;;;20.60;9.85;;;;;;;5.86;45.36;103859.03;4946505;28;20047;-69
2023/02/13 09:56:36;;;;;;;20.63;8.75;;;;;;;5.88;45.35;103865.13;4947303;28;20030;-68
2023/02/13 09:59:22;;;;;;;14.55;8.38;;;;;;;6.02;45.14;103862.94;4949147;28;20146;-69
2023/02/13 10:01:51;;;;;;;16.15;7.25;;;;;;;6.16;44.17;103863.28;4950256;28;20153;-69
2023/02/13 10:05:02;;;;;;;14.57;6.93;;;;;;;6.20;43.56;103855.63;4972665;28;20045;-69
2023/02/13 10:07:30;;;;;;;14.82;7.90;;;;;;;6.21;43.56;103857.38;4931557;28;20088;-69
2023/02/13 10:10:18;;;;;;;15.10;7.40;;;;;;;6.26;43.35;103865.28;4943237;28;20206;-68
2023/02/13 10:13:18;;;;;;;16.80;8.43;;;;;;;6.12;43.67;103856.25;4945891;28;20093;-69
2023/02/13 10:16:07;;;;;;;17.80;8.15;;;;;;;6.25;44.26;103868.72;4945382;28;20034;-69
2023/02/13 10:18:49;;;;;;;21.17;8.43;;;;;;;6.37;44.24;103863.00;4944344;28;20034;-69
2023/02/13 10:21:20;;;;;;;14.07;7.22;;;;;;;6.42;43.98;103864.88;4948571;28;20070;-69
2023/02/13 10:24:11;;;;;;;18.05;8.77;;;;;;;6.31;43.42;103868.94;4945094;28;20042;-69
2023/02/13 10:26:44;;;;;;;15.27;8.25;;;;;;;6.15;43.42;103867.63;4944559;28;20238;-69
2023/02/13 10:32:29;;;;;;;14.95;7.28;;;;;;;6.24;43.20;103867.84;4941756;28;20133;-68
2023/02/13 10:35:00;;;;;;;15.10;6.75;;;;;;;6.22;43.16;103863.47;4951191;28;20043;-68
2023/02/13 10:37:28;;;;;;;15.88;7.97;;;;;;;6.21;43.88;103864.28;4947485;28;20070;-68
2023/02/13 10:40:00;;;;;;;16.23;7.40;;;;;;;6.31;43.81;103868.94;4951898;28;20129;-70
2023/02/13 10:42:44;;;;;;;17.33;8.30;;;;;;;6.33;43.72;103859.47;4948364;28;20556;-70
2023/02/13 10:45:39;;;;;;;16.85;8.75;;;;;;;6.35;43.29;103855.19;4950361;28;20053;-70
2023/02/13 10:48:28;;;;;;;21.08;8.43;;;;;;;6.24;43.45;103846.19;4961829;28;20050;-70
2023/02/13 10:51:08;;;;;;;19.20;7.53;;;;;;;6.28;42.68;103853.25;4956558;28;20038;-70
2023/02/13 10:54:12;;;;;;;18.83;8.15;;;;;;;6.45;42.94;103851.94;4946781;28;20506;-70
2023/02/13 10:56:55;;;;;;;13.93;6.93;;;;;;;6.50;42.94;103850.34;4942503;28;20046;-69
2023/02/13 10:59:46;;;;;;;21.25;7.53;;;;;;;6.69;42.80;103850.81;4936612;28;20034;-70
2023/02/13 11:02:28;;;;;;;13.35;6.63;;;;;;;6.67;42.01;103852.50;4948857;28;20055;-70
2023/02/13 11:05:21;;;;;;;15.88;8.20;;;;;;;6.37;42.84;103847.41;4950786;28;20502;-70
2023/02/13 11:07:56;;;;;;;20.17;9.15;;;;;;;6.70;42.67;103850.81;4951391;28;20062;-70
2023/02/13 11:10:24;;;;;;;14.95;7.13;;;;;;;6.65;41.83;103846.38;4955778;28;20145;-70
2023/02/13 11:12:57;;;;;;;16.60;8.32;;;;;;;6.61;42.48;103841.94;4948615;28;20046;-70
2023/02/13 11:15:32;;;;;;;19.38;8.02;;;;;;;6.45;42.49;103831.16;4948040;28;20245;-69
2023/02/13 11:18:20;;;;;;;17.55;7.80;;;;;;;6.62;42.26;103826.38;4949167;28;20054;-70
2023/02/13 11:20:48;;;;;;;18.23;7.38;;;;;;;6.73;41.27;103826.66;4946022;28;20855;-69
2023/02/13 11:23:33;;;;;;;19.35;7.63;;;;;;;6.91;41.45;103828.78;4945580;28;20288;-70
2023/02/13 11:26:07;;;;;;;17.90;8.55;;;;;;;6.83;42.35;103817.34;4952458;28;20038;-70
2023/02/13 11:28:56;;;;;;;15.35;8.15;;;;;;;6.68;41.70;103817.84;4947681;28;20034;-70
2023/02/13 11:31:32;;;;;;;14.23;7.22;;;;;;;6.86;42.14;103823.50;4946131;28;20705;-71
2023/02/13 11:34:24;;;;;;;14.60;7.55;;;;;;;6.95;41.18;103817.59;4951564;28;20045;-69
2023/02/13 11:36:57;;;;;;;16.20;8.75;;;;;;;6.94;41.26;103814.97;4930644;28;20034;-70
2023/02/13 11:39:27;;;;;;;16.10;8.18;;;;;;;6.81;41.79;103806.00;4975945;28;20042;-69
2023/02/13 11:41:54;;;;;;;14.48;7.18;;;;;;;6.82;41.65;103808.66;4947815;28;20038;-69
2023/02/13 11:44:29;;;;;;;17.45;8.60;;;;;;;6.85;41.74;103800.91;4964495;28;20038;-70
2023/02/13 11:46:59;;;;;;;18.40;7.90;;;;;;;6.86;41.59;103800.09;4960408;28;20451;-67
2023/02/13 11:49:28;;;;;;;17.27;9.75;;;;;;;6.85;41.50;103800.91;4960800;28;20041;-69
2023/02/13 11:52:04;;;;;;;23.02;10.23;;;;;;;6.98;41.69;103807.28;4929708;28;20030;-69
2023/02/13 11:54:45;;;;;;;18.30;8.75;;;;;;;7.07;40.86;103801.41;4931397;28;20130;-70
2023/02/13 11:57:29;;;;;;;16.70;9.15;;;;;;;7.24;40.57;103800.00;4946451;28;20309;-68
2023/02/13 11:59:55;;;;;;;19.17;9.95;;;;;;;7.15;41.13;103793.75;4957794;28;20038;-69
2023/02/13 12:02:25;;;;;;;17.40;8.63;;;;;;;6.99;41.11;103797.75;4952773;28;20815;-70
2023/02/13 12:05:24;;;;;;;18.55;9.18;;;;;;;6.91;40.94;103790.66;4924241;28;20051;-69
2023/02/13 12:08:00;;;;;;;19.45;8.85;;;;;;;7.04;40.83;103790.91;4948233;28;20170;-69
2023/02/13 12:10:33;;;;;;;18.17;7.88;;;;;;;7.21;40.35;103784.34;4947701;28;20050;-69
2023/02/13 12:13:26;;;;;;;25.73;9.52;;;;;;;7.10;40.61;103781.50;4947036;28;20503;-69
2023/02/13 12:16:15;;;;;;;18.45;8.73;;;;;;;7.21;41.49;103791.28;4938516;28;20059;-70
2023/02/13 12:18:46;;;;;;;20.88;9.80;;;;;;;7.36;40.43;103793.34;4933911;28;20040;-68
2023/02/13 12:21:49;;;;;;;17.33;8.80;;;;;;;7.16;40.86;103791.19;4948700;28;20042;-69
2023/02/13 12:24:32;;;;;;;18.48;8.30;;;;;;;7.46;40.71;103783.09;4962949;28;20117;-69